Castlebar Airport

Jump to: basic info | weather | comments

Related pages: nearby airports | nearby navaids | notams | map

Basic information (top)

Codes: CLB EICB
Location: lon 53.848400, lat -9.280370
Status: small_airport

Weather (top)

Current conditions for Ireland West Knock Airport 17nm (31km) ENE (rec'd 2014/11/01 07:30Z):

EIKN 010730Z 18012KT 9999 -RA FEW008 BKN022 BKN080 08/07 Q1004 NOSIG

Airport forecast for Ireland West Knock Airport 17nm (31km) ENE (rec'd 2014/11/01 06:33Z):

TAF TAF EIKN 010500Z 0106/0206 19010KT 9999 SCT018 
      BECMG 0107/0109 16013G23KT 
      BECMG 0110/0112 BKN016 
      TEMPO 0112/0116 3000 RA BKN004 OVC008 
      BECMG 0114/0116 21015G26KT 
      BECMG 0116/0118 21008KT 
      TEMPO 0117/0206 -SHRA BKN012

Latest comments (top)

No longer exists.: This airport was closed in 2001 and the ... [read]

fv: fg [read]

More... (top)

See also NOTAMs and nearby airports and navaids, or visit the Castlebar Airport page at the main OurAirports website..